sensor_id;sensor_type;location;lat;lon;timestamp;temperature;humidity
22008;DHT22;11168;56.976;24.168;2024-01-30T00:00:55;1.20;99.90
22008;DHT22;11168;56.976;24.168;2024-01-30T00:03:22;1.20;99.90
22008;DHT22;11168;56.976;24.168;2024-01-30T00:05:49;1.20;99.90
22008;DHT22;11168;56.976;24.168;2024-01-30T00:08:16;1.20;99.90
22008;DHT22;11168;56.976;24.168;2024-01-30T00:10:46;1.20;99.90
22008;DHT22;11168;56.976;24.168;2024-01-30T00:13:13;1.20;99.90
22008;DHT22;11168;56.976;24.168;2024-01-30T00:15:43;1.20;99.90
22008;DHT22;11168;56.976;24.168;2024-01-30T00:18:10;1.20;99.90
22008;DHT22;11168;56.976;24.168;2024-01-30T00:20:40;1.20;99.90
22008;DHT22;11168;56.976;24.168;2024-01-30T00:23:07;1.20;99.90
22008;DHT22;11168;56.976;24.168;2024-01-30T00:25:34;1.20;99.90
22008;DHT22;11168;56.976;24.168;2024-01-30T00:28:04;1.10;99.90
22008;DHT22;11168;56.976;24.168;2024-01-30T00:30:33;1.10;99.90
22008;DHT22;11168;56.976;24.168;2024-01-30T00:32:59;1.20;99.90
22008;DHT22;11168;56.976;24.168;2024-01-30T00:35:27;1.10;99.90
22008;DHT22;11168;56.976;24.168;2024-01-30T00:37:56;1.10;99.90
22008;DHT22;11168;56.976;24.168;2024-01-30T00:40:24;1.10;99.90
22008;DHT22;11168;56.976;24.168;2024-01-30T00:42:51;1.10;99.90
22008;DHT22;11168;56.976;24.168;2024-01-30T00:45:19;1.10;99.90
22008;DHT22;11168;56.976;24.168;2024-01-30T00:47:46;1.10;99.90
22008;DHT22;11168;56.976;24.168;2024-01-30T00:50:13;1.10;99.90
22008;DHT22;11168;56.976;24.168;2024-01-30T00:52:41;1.10;99.90
22008;DHT22;11168;56.976;24.168;2024-01-30T00:55:12;1.10;99.90
22008;DHT22;11168;56.976;24.168;2024-01-30T00:57:40;1.10;99.90
22008;DHT22;11168;56.976;24.168;2024-01-30T01:00:11;1.10;99.90
22008;DHT22;11168;56.976;24.168;2024-01-30T01:02:39;1.10;99.90
22008;DHT22;11168;56.976;24.168;2024-01-30T01:05:07;1.00;99.90
22008;DHT22;11168;56.976;24.168;2024-01-30T01:07:34;1.00;99.90
22008;DHT22;11168;56.976;24.168;2024-01-30T01:10:01;1.00;99.90
22008;DHT22;11168;56.976;24.168;2024-01-30T01:12:29;1.00;99.90
22008;DHT22;11168;56.976;24.168;2024-01-30T01:14:56;1.00;99.90
22008;DHT22;11168;56.976;24.168;2024-01-30T01:17:24;1.00;99.90
22008;DHT22;11168;56.976;24.168;2024-01-30T01:19:52;1.00;99.90
22008;DHT22;11168;56.976;24.168;2024-01-30T01:22:19;1.00;99.90
22008;DHT22;11168;56.976;24.168;2024-01-30T01:24:46;1.00;99.90
22008;DHT22;11168;56.976;24.168;2024-01-30T01:27:13;1.00;99.90
22008;DHT22;11168;56.976;24.168;2024-01-30T01:29:40;1.00;99.90
22008;DHT22;11168;56.976;24.168;2024-01-30T01:32:09;1.00;99.90
22008;DHT22;11168;56.976;24.168;2024-01-30T01:34:38;1.00;99.90
22008;DHT22;11168;56.976;24.168;2024-01-30T01:37:05;1.00;99.90
22008;DHT22;11168;56.976;24.168;2024-01-30T01:39:35;1.00;99.90
22008;DHT22;11168;56.976;24.168;2024-01-30T01:42:03;1.00;99.90
22008;DHT22;11168;56.976;24.168;2024-01-30T01:44:32;1.00;99.90
22008;DHT22;11168;56.976;24.168;2024-01-30T01:46:59;0.90;99.90
22008;DHT22;11168;56.976;24.168;2024-01-30T01:49:27;1.00;99.90
22008;DHT22;11168;56.976;24.168;2024-01-30T01:51:56;1.00;99.90
22008;DHT22;11168;56.976;24.168;2024-01-30T01:54:25;0.90;99.90
22008;DHT22;11168;56.976;24.168;2024-01-30T01:56:53;1.00;99.90
22008;DHT22;11168;56.976;24.168;2024-01-30T01:59:24;1.00;99.90
22008;DHT22;11168;56.976;24.168;2024-01-30T02:01:52;1.00;99.90
22008;DHT22;11168;56.976;24.168;2024-01-30T02:04:20;0.90;99.90
22008;DHT22;11168;56.976;24.168;2024-01-30T02:06:47;0.90;99.90
22008;DHT22;11168;56.976;24.168;2024-01-30T02:09:15;0.90;99.90
22008;DHT22;11168;56.976;24.168;2024-01-30T02:11:43;0.90;99.90
22008;DHT22;11168;56.976;24.168;2024-01-30T02:14:10;0.90;99.90
22008;DHT22;11168;56.976;24.168;2024-01-30T02:16:37;0.90;99.90
22008;DHT22;11168;56.976;24.168;2024-01-30T02:19:04;0.90;99.90
22008;DHT22;11168;56.976;24.168;2024-01-30T02:21:32;0.90;99.90
22008;DHT22;11168;56.976;24.168;2024-01-30T02:24:01;0.90;99.90
22008;DHT22;11168;56.976;24.168;2024-01-30T02:26:29;0.90;99.90
22008;DHT22;11168;56.976;24.168;2024-01-30T02:28:56;0.90;99.90
22008;DHT22;11168;56.976;24.168;2024-01-30T02:31:25;0.90;99.90
22008;DHT22;11168;56.976;24.168;2024-01-30T02:33:52;0.90;99.90
22008;DHT22;11168;56.976;24.168;2024-01-30T02:36:20;0.90;99.90
22008;DHT22;11168;56.976;24.168;2024-01-30T02:38:47;0.80;99.90
22008;DHT22;11168;56.976;24.168;2024-01-30T02:41:17;0.90;99.90
22008;DHT22;11168;56.976;24.168;2024-01-30T02:43:45;0.90;99.90
22008;DHT22;11168;56.976;24.168;2024-01-30T02:46:12;0.80;99.90
22008;DHT22;11168;56.976;24.168;2024-01-30T02:48:40;0.80;99.90
22008;DHT22;11168;56.976;24.168;2024-01-30T02:51:07;0.80;99.90
22008;DHT22;11168;56.976;24.168;2024-01-30T02:53:34;0.80;99.90
22008;DHT22;11168;56.976;24.168;2024-01-30T02:56:02;0.80;99.90
22008;DHT22;11168;56.976;24.168;2024-01-30T02:58:29;0.80;99.90
22008;DHT22;11168;56.976;24.168;2024-01-30T03:00:57;0.80;99.90
22008;DHT22;11168;56.976;24.168;2024-01-30T03:03:24;0.80;99.90
22008;DHT22;11168;56.976;24.168;2024-01-30T03:05:53;0.80;99.90
22008;DHT22;11168;56.976;24.168;2024-01-30T03:08:21;0.80;99.90
22008;DHT22;11168;56.976;24.168;2024-01-30T03:10:48;0.80;99.90
22008;DHT22;11168;56.976;24.168;2024-01-30T03:13:15;0.80;99.90
22008;DHT22;11168;56.976;24.168;2024-01-30T03:15:42;0.80;99.90
22008;DHT22;11168;56.976;24.168;2024-01-30T03:18:10;0.80;99.90
22008;DHT22;11168;56.976;24.168;2024-01-30T03:20:37;0.80;99.90
22008;DHT22;11168;56.976;24.168;2024-01-30T03:23:04;0.80;99.90
22008;DHT22;11168;56.976;24.168;2024-01-30T03:25:33;0.80;99.90
22008;DHT22;11168;56.976;24.168;2024-01-30T03:28:00;0.80;99.90
22008;DHT22;11168;56.976;24.168;2024-01-30T03:30:27;0.80;99.90
22008;DHT22;11168;56.976;24.168;2024-01-30T03:32:54;0.80;99.90
22008;DHT22;11168;56.976;24.168;2024-01-30T03:35:24;0.80;99.90
22008;DHT22;11168;56.976;24.168;2024-01-30T03:37:51;0.80;99.90
22008;DHT22;11168;56.976;24.168;2024-01-30T03:40:18;0.80;99.90
22008;DHT22;11168;56.976;24.168;2024-01-30T03:42:45;0.80;99.90
22008;DHT22;11168;56.976;24.168;2024-01-30T03:45:14;0.80;99.90
22008;DHT22;11168;56.976;24.168;2024-01-30T03:47:43;0.80;99.90
22008;DHT22;11168;56.976;24.168;2024-01-30T03:50:10;0.80;99.90
22008;DHT22;11168;56.976;24.168;2024-01-30T03:52:37;0.80;99.90
22008;DHT22;11168;56.976;24.168;2024-01-30T03:55:05;0.80;99.90
22008;DHT22;11168;56.976;24.168;2024-01-30T03:57:32;0.80;99.90
22008;DHT22;11168;56.976;24.168;2024-01-30T04:00:00;0.90;99.90
22008;DHT22;11168;56.976;24.168;2024-01-30T04:02:29;0.80;99.90
22008;DHT22;11168;56.976;24.168;2024-01-30T04:04:56;0.80;99.90
22008;DHT22;11168;56.976;24.168;2024-01-30T04:07:25;0.80;99.90
22008;DHT22;11168;56.976;24.168;2024-01-30T04:09:52;0.80;99.90
22008;DHT22;11168;56.976;24.168;2024-01-30T04:12:19;0.80;99.90
22008;DHT22;11168;56.976;24.168;2024-01-30T04:14:47;0.70;99.90
22008;DHT22;11168;56.976;24.168;2024-01-30T04:17:17;0.70;99.90
22008;DHT22;11168;56.976;24.168;2024-01-30T04:19:44;0.70;99.90
22008;DHT22;11168;56.976;24.168;2024-01-30T04:22:11;0.70;99.90
22008;DHT22;11168;56.976;24.168;2024-01-30T04:24:38;0.80;99.90
22008;DHT22;11168;56.976;24.168;2024-01-30T04:27:06;0.70;99.90
22008;DHT22;11168;56.976;24.168;2024-01-30T04:29:33;0.70;99.90
22008;DHT22;11168;56.976;24.168;2024-01-30T04:32:00;0.70;99.90
22008;DHT22;11168;56.976;24.168;2024-01-30T04:34:27;0.70;99.90
22008;DHT22;11168;56.976;24.168;2024-01-30T04:36:55;0.70;99.90
22008;DHT22;11168;56.976;24.168;2024-01-30T04:39:23;0.70;99.90
22008;DHT22;11168;56.976;24.168;2024-01-30T04:41:50;0.70;99.90
22008;DHT22;11168;56.976;24.168;2024-01-30T04:44:17;0.70;99.90
22008;DHT22;11168;56.976;24.168;2024-01-30T04:46:44;0.70;99.90
22008;DHT22;11168;56.976;24.168;2024-01-30T04:49:11;0.70;99.90
22008;DHT22;11168;56.976;24.168;2024-01-30T04:51:40;0.70;99.90
22008;DHT22;11168;56.976;24.168;2024-01-30T04:54:10;0.70;99.90
22008;DHT22;11168;56.976;24.168;2024-01-30T04:56:37;0.70;99.90
22008;DHT22;11168;56.976;24.168;2024-01-30T04:59:05;0.70;99.90
22008;DHT22;11168;56.976;24.168;2024-01-30T05:01:33;0.70;99.90
22008;DHT22;11168;56.976;24.168;2024-01-30T05:04:00;0.80;99.90
22008;DHT22;11168;56.976;24.168;2024-01-30T05:06:30;0.70;99.90
22008;DHT22;11168;56.976;24.168;2024-01-30T05:08:57;0.70;99.90
22008;DHT22;11168;56.976;24.168;2024-01-30T05:11:27;0.70;99.90
22008;DHT22;11168;56.976;24.168;2024-01-30T05:13:54;0.70;99.90
22008;DHT22;11168;56.976;24.168;2024-01-30T05:16:23;0.70;99.90
22008;DHT22;11168;56.976;24.168;2024-01-30T05:18:51;0.70;99.90
22008;DHT22;11168;56.976;24.168;2024-01-30T05:21:18;0.70;99.90
22008;DHT22;11168;56.976;24.168;2024-01-30T05:23:45;0.70;99.90
22008;DHT22;11168;56.976;24.168;2024-01-30T05:26:13;0.70;99.90
22008;DHT22;11168;56.976;24.168;2024-01-30T05:28:40;0.70;99.90
22008;DHT22;11168;56.976;24.168;2024-01-30T05:31:08;0.70;99.90
22008;DHT22;11168;56.976;24.168;2024-01-30T05:33:36;0.70;99.90
22008;DHT22;11168;56.976;24.168;2024-01-30T05:36:04;0.70;99.90
22008;DHT22;11168;56.976;24.168;2024-01-30T05:38:31;0.70;99.90
22008;DHT22;11168;56.976;24.168;2024-01-30T05:40:58;0.70;99.90
22008;DHT22;11168;56.976;24.168;2024-01-30T05:43:26;0.60;99.90
22008;DHT22;11168;56.976;24.168;2024-01-30T05:45:54;0.60;99.90
22008;DHT22;11168;56.976;24.168;2024-01-30T05:48:22;0.60;99.90
22008;DHT22;11168;56.976;24.168;2024-01-30T05:50:52;0.60;99.90
22008;DHT22;11168;56.976;24.168;2024-01-30T05:53:19;0.60;99.90
22008;DHT22;11168;56.976;24.168;2024-01-30T05:55:46;0.60;99.90
22008;DHT22;11168;56.976;24.168;2024-01-30T05:58:16;0.50;99.90
22008;DHT22;11168;56.976;24.168;2024-01-30T06:00:44;0.60;99.90
22008;DHT22;11168;56.976;24.168;2024-01-30T06:03:11;0.60;99.90
22008;DHT22;11168;56.976;24.168;2024-01-30T06:05:39;0.60;99.90
22008;DHT22;11168;56.976;24.168;2024-01-30T06:08:06;0.60;99.90
22008;DHT22;11168;56.976;24.168;2024-01-30T06:10:38;0.60;99.90
22008;DHT22;11168;56.976;24.168;2024-01-30T06:13:07;0.60;99.90
22008;DHT22;11168;56.976;24.168;2024-01-30T06:15:34;0.60;99.90
22008;DHT22;11168;56.976;24.168;2024-01-30T06:18:02;0.60;99.90
22008;DHT22;11168;56.976;24.168;2024-01-30T06:20:29;0.60;99.90
22008;DHT22;11168;56.976;24.168;2024-01-30T06:22:56;0.60;99.90
22008;DHT22;11168;56.976;24.168;2024-01-30T06:25:23;0.60;99.90
22008;DHT22;11168;56.976;24.168;2024-01-30T06:27:51;0.60;99.90
22008;DHT22;11168;56.976;24.168;2024-01-30T06:30:18;0.60;99.90
22008;DHT22;11168;56.976;24.168;2024-01-30T06:32:46;0.60;99.90
22008;DHT22;11168;56.976;24.168;2024-01-30T06:35:14;0.60;99.90
22008;DHT22;11168;56.976;24.168;2024-01-30T06:37:41;0.70;99.90
22008;DHT22;11168;56.976;24.168;2024-01-30T06:40:10;0.70;99.90
22008;DHT22;11168;56.976;24.168;2024-01-30T06:42:38;0.70;99.90
22008;DHT22;11168;56.976;24.168;2024-01-30T06:45:06;0.70;99.90
22008;DHT22;11168;56.976;24.168;2024-01-30T06:47:35;0.70;99.90
22008;DHT22;11168;56.976;24.168;2024-01-30T06:50:03;0.70;99.90
22008;DHT22;11168;56.976;24.168;2024-01-30T06:52:30;0.70;99.90
22008;DHT22;11168;56.976;24.168;2024-01-30T06:55:01;0.70;99.90
22008;DHT22;11168;56.976;24.168;2024-01-30T06:57:31;0.70;99.90
22008;DHT22;11168;56.976;24.168;2024-01-30T06:59:58;0.70;99.90
22008;DHT22;11168;56.976;24.168;2024-01-30T07:02:26;0.70;99.90
22008;DHT22;11168;56.976;24.168;2024-01-30T07:04:53;0.80;99.90
22008;DHT22;11168;56.976;24.168;2024-01-30T07:07:20;0.80;99.90
22008;DHT22;11168;56.976;24.168;2024-01-30T07:09:48;0.80;99.90
22008;DHT22;11168;56.976;24.168;2024-01-30T07:12:19;0.80;99.90
22008;DHT22;11168;56.976;24.168;2024-01-30T07:14:46;0.80;99.90
22008;DHT22;11168;56.976;24.168;2024-01-30T07:17:13;0.90;99.90
22008;DHT22;11168;56.976;24.168;2024-01-30T07:19:40;0.80;99.90
22008;DHT22;11168;56.976;24.168;2024-01-30T07:24:58;0.90;99.90
22008;DHT22;11168;56.976;24.168;2024-01-30T07:27:26;0.90;99.90
22008;DHT22;11168;56.976;24.168;2024-01-30T07:29:54;0.90;99.90
22008;DHT22;11168;56.976;24.168;2024-01-30T07:32:21;0.90;99.90
22008;DHT22;11168;56.976;24.168;2024-01-30T07:34:48;0.90;99.90
22008;DHT22;11168;56.976;24.168;2024-01-30T07:37:32;1.00;99.90
22008;DHT22;11168;56.976;24.168;2024-01-30T07:40:01;1.00;99.90
22008;DHT22;11168;56.976;24.168;2024-01-30T07:42:29;1.00;99.90
22008;DHT22;11168;56.976;24.168;2024-01-30T07:44:57;1.10;99.90
22008;DHT22;11168;56.976;24.168;2024-01-30T07:47:24;1.10;99.90
22008;DHT22;11168;56.976;24.168;2024-01-30T07:49:51;1.10;99.90
22008;DHT22;11168;56.976;24.168;2024-01-30T07:52:19;1.10;99.90
22008;DHT22;11168;56.976;24.168;2024-01-30T07:55:17;1.10;99.90
22008;DHT22;11168;56.976;24.168;2024-01-30T07:58:12;1.10;99.90
22008;DHT22;11168;56.976;24.168;2024-01-30T08:00:40;1.10;99.90
22008;DHT22;11168;56.976;24.168;2024-01-30T08:03:07;1.10;99.90
22008;DHT22;11168;56.976;24.168;2024-01-30T08:05:34;1.10;99.90
22008;DHT22;11168;56.976;24.168;2024-01-30T08:08:02;1.20;99.90
22008;DHT22;11168;56.976;24.168;2024-01-30T08:10:30;1.20;99.90
22008;DHT22;11168;56.976;24.168;2024-01-30T08:12:58;1.30;99.90
22008;DHT22;11168;56.976;24.168;2024-01-30T08:15:25;1.30;99.90
22008;DHT22;11168;56.976;24.168;2024-01-30T08:17:52;1.30;99.90
22008;DHT22;11168;56.976;24.168;2024-01-30T08:20:25;1.30;99.90
22008;DHT22;11168;56.976;24.168;2024-01-30T08:22:52;1.30;99.90
22008;DHT22;11168;56.976;24.168;2024-01-30T08:25:20;1.40;99.90
22008;DHT22;11168;56.976;24.168;2024-01-30T08:27:47;1.40;99.90
22008;DHT22;11168;56.976;24.168;2024-01-30T08:30:17;1.40;99.90
22008;DHT22;11168;56.976;24.168;2024-01-30T08:32:45;1.50;99.90
22008;DHT22;11168;56.976;24.168;2024-01-30T08:35:12;1.50;99.90
22008;DHT22;11168;56.976;24.168;2024-01-30T08:37:43;1.50;99.90
22008;DHT22;11168;56.976;24.168;2024-01-30T08:40:10;1.60;99.90
22008;DHT22;11168;56.976;24.168;2024-01-30T08:42:38;1.60;99.90
22008;DHT22;11168;56.976;24.168;2024-01-30T08:45:05;1.70;99.90
22008;DHT22;11168;56.976;24.168;2024-01-30T08:47:32;1.70;99.90
22008;DHT22;11168;56.976;24.168;2024-01-30T08:50:00;1.70;99.90
22008;DHT22;11168;56.976;24.168;2024-01-30T08:52:27;1.70;99.90
22008;DHT22;11168;56.976;24.168;2024-01-30T08:54:55;1.60;99.90
22008;DHT22;11168;56.976;24.168;2024-01-30T08:57:22;1.60;99.90
22008;DHT22;11168;56.976;24.168;2024-01-30T08:59:49;1.60;99.90
22008;DHT22;11168;56.976;24.168;2024-01-30T09:02:16;1.60;99.90
22008;DHT22;11168;56.976;24.168;2024-01-30T09:04:45;1.60;99.90
22008;DHT22;11168;56.976;24.168;2024-01-30T09:07:12;1.70;99.90
22008;DHT22;11168;56.976;24.168;2024-01-30T09:09:41;1.70;99.90
22008;DHT22;11168;56.976;24.168;2024-01-30T09:12:09;1.70;99.90
22008;DHT22;11168;56.976;24.168;2024-01-30T09:14:39;1.80;99.90
22008;DHT22;11168;56.976;24.168;2024-01-30T09:17:10;1.80;99.90
22008;DHT22;11168;56.976;24.168;2024-01-30T09:19:37;1.80;99.90
22008;DHT22;11168;56.976;24.168;2024-01-30T09:22:05;1.80;99.90
22008;DHT22;11168;56.976;24.168;2024-01-30T09:24:33;2.00;99.90
22008;DHT22;11168;56.976;24.168;2024-01-30T09:27:00;1.90;99.90
22008;DHT22;11168;56.976;24.168;2024-01-30T09:29:29;2.00;99.90
22008;DHT22;11168;56.976;24.168;2024-01-30T09:31:57;2.00;99.90
22008;DHT22;11168;56.976;24.168;2024-01-30T09:34:25;2.10;99.90
22008;DHT22;11168;56.976;24.168;2024-01-30T09:36:52;2.10;99.90
22008;DHT22;11168;56.976;24.168;2024-01-30T09:39:19;2.20;99.90
22008;DHT22;11168;56.976;24.168;2024-01-30T09:42:00;2.20;99.90
22008;DHT22;11168;56.976;24.168;2024-01-30T09:44:36;2.20;99.90
22008;DHT22;11168;56.976;24.168;2024-01-30T09:47:04;2.30;99.90
22008;DHT22;11168;56.976;24.168;2024-01-30T09:49:34;2.20;99.90
22008;DHT22;11168;56.976;24.168;2024-01-30T09:52:02;2.20;99.90
22008;DHT22;11168;56.976;24.168;2024-01-30T09:54:31;2.30;99.90
22008;DHT22;11168;56.976;24.168;2024-01-30T09:57:02;2.50;99.90
22008;DHT22;11168;56.976;24.168;2024-01-30T09:59:30;2.60;99.90
22008;DHT22;11168;56.976;24.168;2024-01-30T10:01:57;2.80;99.90
22008;DHT22;11168;56.976;24.168;2024-01-30T10:04:24;2.80;99.90
22008;DHT22;11168;56.976;24.168;2024-01-30T10:06:52;2.80;99.90
22008;DHT22;11168;56.976;24.168;2024-01-30T10:09:20;2.70;99.90
22008;DHT22;11168;56.976;24.168;2024-01-30T10:11:48;2.90;99.90
22008;DHT22;11168;56.976;24.168;2024-01-30T10:14:15;3.00;99.90
22008;DHT22;11168;56.976;24.168;2024-01-30T10:16:43;3.10;99.90
22008;DHT22;11168;56.976;24.168;2024-01-30T10:19:14;3.10;99.90
22008;DHT22;11168;56.976;24.168;2024-01-30T10:21:42;3.20;99.90
22008;DHT22;11168;56.976;24.168;2024-01-30T10:24:10;3.20;99.90
22008;DHT22;11168;56.976;24.168;2024-01-30T10:26:39;3.40;99.90
22008;DHT22;11168;56.976;24.168;2024-01-30T10:29:08;3.50;99.90
22008;DHT22;11168;56.976;24.168;2024-01-30T10:31:35;3.60;99.90
22008;DHT22;11168;56.976;24.168;2024-01-30T10:34:05;3.70;99.90
22008;DHT22;11168;56.976;24.168;2024-01-30T10:36:50;3.80;99.90
22008;DHT22;11168;56.976;24.168;2024-01-30T10:39:17;4.00;99.90
22008;DHT22;11168;56.976;24.168;2024-01-30T10:41:47;4.30;99.90
22008;DHT22;11168;56.976;24.168;2024-01-30T10:44:19;4.40;99.90
22008;DHT22;11168;56.976;24.168;2024-01-30T10:47:02;4.60;99.90
22008;DHT22;11168;56.976;24.168;2024-01-30T10:49:30;4.80;99.90
22008;DHT22;11168;56.976;24.168;2024-01-30T10:51:59;5.30;99.90
22008;DHT22;11168;56.976;24.168;2024-01-30T10:54:27;5.20;99.90
22008;DHT22;11168;56.976;24.168;2024-01-30T10:56:55;5.10;99.90
22008;DHT22;11168;56.976;24.168;2024-01-30T10:59:24;4.60;99.90
22008;DHT22;11168;56.976;24.168;2024-01-30T11:01:52;4.30;99.90
22008;DHT22;11168;56.976;24.168;2024-01-30T11:04:19;4.30;99.90
22008;DHT22;11168;56.976;24.168;2024-01-30T11:06:49;4.20;99.90
22008;DHT22;11168;56.976;24.168;2024-01-30T11:09:18;4.20;99.90
22008;DHT22;11168;56.976;24.168;2024-01-30T11:12:01;4.10;99.90
22008;DHT22;11168;56.976;24.168;2024-01-30T11:14:30;4.30;99.90
22008;DHT22;11168;56.976;24.168;2024-01-30T11:16:58;4.40;99.90
22008;DHT22;11168;56.976;24.168;2024-01-30T11:19:27;4.30;99.90
22008;DHT22;11168;56.976;24.168;2024-01-30T11:21:55;4.20;99.90
22008;DHT22;11168;56.976;24.168;2024-01-30T11:24:24;4.40;99.90
22008;DHT22;11168;56.976;24.168;2024-01-30T11:26:58;4.60;99.90
22008;DHT22;11168;56.976;24.168;2024-01-30T11:29:29;4.60;99.90
22008;DHT22;11168;56.976;24.168;2024-01-30T11:31:58;4.30;99.90
22008;DHT22;11168;56.976;24.168;2024-01-30T11:34:26;4.00;99.90
22008;DHT22;11168;56.976;24.168;2024-01-30T11:36:58;3.80;99.90
22008;DHT22;11168;56.976;24.168;2024-01-30T11:39:27;3.60;99.90
22008;DHT22;11168;56.976;24.168;2024-01-30T11:41:54;3.50;99.90
22008;DHT22;11168;56.976;24.168;2024-01-30T11:44:22;3.40;99.90
22008;DHT22;11168;56.976;24.168;2024-01-30T11:46:51;3.20;99.90
22008;DHT22;11168;56.976;24.168;2024-01-30T11:49:19;3.10;99.90
22008;DHT22;11168;56.976;24.168;2024-01-30T11:51:46;3.20;99.90
22008;DHT22;11168;56.976;24.168;2024-01-30T11:54:17;3.30;99.90
22008;DHT22;11168;56.976;24.168;2024-01-30T11:56:44;3.20;99.90
22008;DHT22;11168;56.976;24.168;2024-01-30T11:59:12;3.30;99.90
22008;DHT22;11168;56.976;24.168;2024-01-30T12:01:40;3.30;99.90
22008;DHT22;11168;56.976;24.168;2024-01-30T12:04:10;3.30;99.90
22008;DHT22;11168;56.976;24.168;2024-01-30T12:06:38;3.30;99.90
22008;DHT22;11168;56.976;24.168;2024-01-30T12:09:08;3.40;99.90
22008;DHT22;11168;56.976;24.168;2024-01-30T12:11:46;3.50;99.90
22008;DHT22;11168;56.976;24.168;2024-01-30T12:14:14;3.50;99.90
22008;DHT22;11168;56.976;24.168;2024-01-30T12:16:47;3.40;99.90
22008;DHT22;11168;56.976;24.168;2024-01-30T12:19:24;3.50;99.90
22008;DHT22;11168;56.976;24.168;2024-01-30T12:21:56;3.50;99.90
22008;DHT22;11168;56.976;24.168;2024-01-30T12:24:27;3.50;99.90
22008;DHT22;11168;56.976;24.168;2024-01-30T12:26:59;3.60;99.90
22008;DHT22;11168;56.976;24.168;2024-01-30T12:29:26;3.40;99.90
22008;DHT22;11168;56.976;24.168;2024-01-30T12:32:01;3.50;99.90
22008;DHT22;11168;56.976;24.168;2024-01-30T12:34:31;3.30;99.90
22008;DHT22;11168;56.976;24.168;2024-01-30T12:37:05;3.30;99.90
22008;DHT22;11168;56.976;24.168;2024-01-30T12:39:34;3.30;99.90
22008;DHT22;11168;56.976;24.168;2024-01-30T12:42:01;3.30;99.90
22008;DHT22;11168;56.976;24.168;2024-01-30T12:44:30;3.30;99.90
22008;DHT22;11168;56.976;24.168;2024-01-30T12:46:58;3.30;99.90
22008;DHT22;11168;56.976;24.168;2024-01-30T12:49:25;3.30;99.90
22008;DHT22;11168;56.976;24.168;2024-01-30T12:51:54;3.30;99.90
22008;DHT22;11168;56.976;24.168;2024-01-30T12:54:23;3.20;99.90
22008;DHT22;11168;56.976;24.168;2024-01-30T12:56:50;3.20;99.90
22008;DHT22;11168;56.976;24.168;2024-01-30T12:59:19;3.00;99.90
22008;DHT22;11168;56.976;24.168;2024-01-30T13:01:46;3.00;99.90
22008;DHT22;11168;56.976;24.168;2024-01-30T13:04:13;2.80;99.90
22008;DHT22;11168;56.976;24.168;2024-01-30T13:06:43;2.80;99.90
22008;DHT22;11168;56.976;24.168;2024-01-30T13:09:10;2.80;99.90
22008;DHT22;11168;56.976;24.168;2024-01-30T13:11:37;2.70;99.90
22008;DHT22;11168;56.976;24.168;2024-01-30T13:14:04;2.70;99.90
22008;DHT22;11168;56.976;24.168;2024-01-30T13:16:36;2.70;99.90
22008;DHT22;11168;56.976;24.168;2024-01-30T13:19:03;2.70;99.90
22008;DHT22;11168;56.976;24.168;2024-01-30T13:21:30;2.70;99.90
22008;DHT22;11168;56.976;24.168;2024-01-30T13:23:58;2.60;99.90
22008;DHT22;11168;56.976;24.168;2024-01-30T13:26:25;2.50;99.90
22008;DHT22;11168;56.976;24.168;2024-01-30T13:28:53;2.50;99.90
22008;DHT22;11168;56.976;24.168;2024-01-30T13:31:20;2.50;99.90
22008;DHT22;11168;56.976;24.168;2024-01-30T13:33:50;2.40;99.90
22008;DHT22;11168;56.976;24.168;2024-01-30T13:36:17;2.40;99.90
22008;DHT22;11168;56.976;24.168;2024-01-30T13:38:45;2.40;99.90
22008;DHT22;11168;56.976;24.168;2024-01-30T13:41:14;2.30;99.90
22008;DHT22;11168;56.976;24.168;2024-01-30T13:43:41;2.40;99.90
22008;DHT22;11168;56.976;24.168;2024-01-30T13:46:09;2.40;99.90
22008;DHT22;11168;56.976;24.168;2024-01-30T13:48:36;2.30;99.90
22008;DHT22;11168;56.976;24.168;2024-01-30T13:51:04;2.30;99.90
22008;DHT22;11168;56.976;24.168;2024-01-30T13:53:31;2.30;99.90
22008;DHT22;11168;56.976;24.168;2024-01-30T13:55:58;2.30;99.90
22008;DHT22;11168;56.976;24.168;2024-01-30T13:58:28;2.20;99.90
22008;DHT22;11168;56.976;24.168;2024-01-30T14:00:56;2.30;99.90
22008;DHT22;11168;56.976;24.168;2024-01-30T14:03:24;2.30;99.90
22008;DHT22;11168;56.976;24.168;2024-01-30T14:05:51;2.30;99.90
22008;DHT22;11168;56.976;24.168;2024-01-30T14:08:21;2.20;99.90
22008;DHT22;11168;56.976;24.168;2024-01-30T14:10:50;2.30;99.90
22008;DHT22;11168;56.976;24.168;2024-01-30T14:13:18;2.30;99.90
22008;DHT22;11168;56.976;24.168;2024-01-30T14:15:46;2.30;99.90
22008;DHT22;11168;56.976;24.168;2024-01-30T14:18:14;2.20;99.90
22008;DHT22;11168;56.976;24.168;2024-01-30T14:20:42;2.20;99.90
22008;DHT22;11168;56.976;24.168;2024-01-30T14:23:11;2.20;99.90
22008;DHT22;11168;56.976;24.168;2024-01-30T14:25:38;2.20;99.90
22008;DHT22;11168;56.976;24.168;2024-01-30T14:28:08;2.20;99.90
22008;DHT22;11168;56.976;24.168;2024-01-30T14:30:36;2.10;99.90
22008;DHT22;11168;56.976;24.168;2024-01-30T14:33:03;2.10;99.90
22008;DHT22;11168;56.976;24.168;2024-01-30T14:35:30;2.10;99.90
22008;DHT22;11168;56.976;24.168;2024-01-30T14:37:58;2.10;99.90
22008;DHT22;11168;56.976;24.168;2024-01-30T14:40:25;2.10;99.90
22008;DHT22;11168;56.976;24.168;2024-01-30T14:42:52;2.10;99.90
22008;DHT22;11168;56.976;24.168;2024-01-30T14:45:19;2.00;99.90
22008;DHT22;11168;56.976;24.168;2024-01-30T14:47:49;2.00;99.90
22008;DHT22;11168;56.976;24.168;2024-01-30T14:50:22;2.10;99.90
22008;DHT22;11168;56.976;24.168;2024-01-30T14:52:50;2.00;99.90
22008;DHT22;11168;56.976;24.168;2024-01-30T14:55:17;2.00;99.90
22008;DHT22;11168;56.976;24.168;2024-01-30T14:57:44;2.00;99.90
22008;DHT22;11168;56.976;24.168;2024-01-30T15:00:16;2.00;99.90
22008;DHT22;11168;56.976;24.168;2024-01-30T15:02:44;2.00;99.90
22008;DHT22;11168;56.976;24.168;2024-01-30T15:05:18;2.00;99.90
22008;DHT22;11168;56.976;24.168;2024-01-30T15:07:45;2.00;99.90
22008;DHT22;11168;56.976;24.168;2024-01-30T15:10:13;1.90;99.90
22008;DHT22;11168;56.976;24.168;2024-01-30T15:12:40;1.90;99.90
22008;DHT22;11168;56.976;24.168;2024-01-30T15:15:10;1.90;99.90
22008;DHT22;11168;56.976;24.168;2024-01-30T15:17:40;1.90;99.90
22008;DHT22;11168;56.976;24.168;2024-01-30T15:20:09;1.90;99.90
22008;DHT22;11168;56.976;24.168;2024-01-30T15:22:37;1.90;99.90
22008;DHT22;11168;56.976;24.168;2024-01-30T15:25:05;1.90;99.90
22008;DHT22;11168;56.976;24.168;2024-01-30T15:27:32;1.80;99.90
22008;DHT22;11168;56.976;24.168;2024-01-30T15:30:00;1.80;99.90
22008;DHT22;11168;56.976;24.168;2024-01-30T15:32:27;1.80;99.90
22008;DHT22;11168;56.976;24.168;2024-01-30T15:34:55;1.80;99.90
22008;DHT22;11168;56.976;24.168;2024-01-30T15:37:24;1.80;99.90
22008;DHT22;11168;56.976;24.168;2024-01-30T15:39:54;1.70;99.90